Time;durP1;ratioP1;P1;durP2;ratioP2;P2;SDS_P1;SDS_P2;PMS_P1;PMS_P2;Temp;Humidity;BMP_temperature;BMP_pressure;BME280_temperature;BME280_humidity;BME280_pressure;Samples;Min_cycle;Max_cycle;Signal;HPM_P1;HPM_P2
2023/11/22 00:00:08;;;;;;;16.10;9.80;;;;;;;;;;5116783;28;20030;-78
2023/11/22 00:02:53;;;;;;;16.48;10.25;;;;;;;;;;5117439;28;20020;-78
2023/11/22 00:05:39;;;;;;;16.83;10.20;;;;;;;;;;5117308;28;20011;-77
2023/11/22 00:08:24;;;;;;;14.43;10.65;;;;;;;;;;5117522;28;20098;-78
2023/11/22 00:11:10;;;;;;;19.13;11.02;;;;;;;;;;5116347;28;20110;-78
2023/11/22 00:13:56;;;;;;;16.58;11.18;;;;;;;;;;5117843;28;20026;-78
2023/11/22 00:16:42;;;;;;;17.05;11.35;;;;;;;;;;5117067;28;20455;-78
2023/11/22 00:19:28;;;;;;;18.35;10.75;;;;;;;;;;5117017;28;20036;-77
2023/11/22 00:22:14;;;;;;;18.70;11.23;;;;;;;;;;5115987;28;20035;-78
2023/11/22 00:25:01;;;;;;;18.25;11.90;;;;;;;;;;5117022;28;20439;-78
2023/11/22 00:27:46;;;;;;;17.00;11.65;;;;;;;;;;5117480;28;20020;-78
2023/11/22 00:30:32;;;;;;;19.38;11.70;;;;;;;;;;5118091;28;20110;-78
2023/11/22 00:33:19;;;;;;;21.30;11.80;;;;;;;;;;5102283;28;20028;-77
2023/11/22 00:36:07;;;;;;;18.67;12.05;;;;;;;;;;5116551;28;20019;-79
2023/11/22 00:38:53;;;;;;;16.10;11.73;;;;;;;;;;5117711;28;20432;-78
2023/11/22 00:41:39;;;;;;;20.42;12.88;;;;;;;;;;5102191;28;20051;-76
2023/11/22 00:44:25;;;;;;;18.88;11.90;;;;;;;;;;5102253;28;20073;-78
2023/11/22 00:47:10;;;;;;;18.27;11.90;;;;;;;;;;5117379;28;20043;-78
2023/11/22 00:49:56;;;;;;;20.27;12.60;;;;;;;;;;5116973;28;20156;-77
2023/11/22 00:52:44;;;;;;;20.95;13.27;;;;;;;;;;5117325;28;20188;-77
2023/11/22 00:55:30;;;;;;;23.77;13.85;;;;;;;;;;5101647;28;20126;-77
2023/11/22 00:58:15;;;;;;;19.73;13.32;;;;;;;;;;5116254;28;20026;-76
2023/11/22 01:01:01;;;;;;;19.70;13.63;;;;;;;;;;5114992;28;20012;-77
2023/11/22 01:03:47;;;;;;;20.30;13.82;;;;;;;;;;5117490;28;20073;-78
2023/11/22 01:06:33;;;;;;;20.23;13.55;;;;;;;;;;5102293;28;20344;-77
2023/11/22 01:09:18;;;;;;;24.27;13.90;;;;;;;;;;5100567;28;20015;-78
2023/11/22 01:12:04;;;;;;;20.35;13.25;;;;;;;;;;5117479;28;20482;-78
2023/11/22 01:14:50;;;;;;;22.92;14.48;;;;;;;;;;5115297;28;20027;-78
2023/11/22 01:17:35;;;;;;;21.13;13.77;;;;;;;;;;5101657;28;20024;-77
2023/11/22 01:20:23;;;;;;;23.75;14.93;;;;;;;;;;5116331;28;20467;-78
2023/11/22 01:23:08;;;;;;;20.58;14.05;;;;;;;;;;5115425;28;20027;-77
2023/11/22 01:25:54;;;;;;;27.60;15.45;;;;;;;;;;5115476;28;20031;-76
2023/11/22 01:28:44;;;;;;;26.63;16.23;;;;;;;;;;5101713;28;20039;-76
2023/11/22 01:31:29;;;;;;;24.23;15.18;;;;;;;;;;5116532;28;20027;-77
2023/11/22 01:34:15;;;;;;;24.67;15.00;;;;;;;;;;5116664;28;20016;-76
2023/11/22 01:37:00;;;;;;;24.55;15.40;;;;;;;;;;5116786;28;20027;-76
2023/11/22 01:39:46;;;;;;;24.38;16.55;;;;;;;;;;5101557;28;20111;-75
2023/11/22 01:42:32;;;;;;;24.02;15.07;;;;;;;;;;5115793;28;20106;-76
2023/11/22 01:45:18;;;;;;;29.10;17.00;;;;;;;;;;5116205;28;20020;-76
2023/11/22 01:48:04;;;;;;;22.33;15.25;;;;;;;;;;5101160;28;20057;-76
2023/11/22 01:50:50;;;;;;;24.30;15.25;;;;;;;;;;5115900;28;20051;-76
2023/11/22 01:53:35;;;;;;;27.13;16.95;;;;;;;;;;5101435;28;20115;-76
2023/11/22 01:56:22;;;;;;;24.70;16.02;;;;;;;;;;5126727;28;20085;-75
2023/11/22 01:59:08;;;;;;;25.95;17.17;;;;;;;;;;5125967;28;20016;-75
2023/11/22 02:01:54;;;;;;;24.98;16.60;;;;;;;;;;5110421;28;20012;-75
2023/11/22 02:04:40;;;;;;;24.27;16.45;;;;;;;;;;5113087;28;20111;-75
2023/11/22 02:07:28;;;;;;;28.50;17.50;;;;;;;;;;5132913;28;20016;-77
2023/11/22 02:10:14;;;;;;;30.48;18.23;;;;;;;;;;5132933;28;20024;-77
2023/11/22 02:13:04;;;;;;;28.65;16.65;;;;;;;;;;5117898;28;20015;-78
2023/11/22 02:15:50;;;;;;;33.83;18.50;;;;;;;;;;5118493;28;20024;-77
2023/11/22 02:18:36;;;;;;;26.70;17.95;;;;;;;;;;5114950;28;20046;-77
2023/11/22 02:21:22;;;;;;;29.20;19.17;;;;;;;;;;5122544;28;20020;-78
2023/11/22 02:24:08;;;;;;;28.33;17.77;;;;;;;;;;5115557;28;20352;-77
2023/11/22 02:26:54;;;;;;;29.80;17.35;;;;;;;;;;5114173;28;20035;-77
2023/11/22 02:29:40;;;;;;;28.15;17.70;;;;;;;;;;5115004;28;20384;-77
2023/11/22 02:32:27;;;;;;;28.05;18.35;;;;;;;;;;5114120;28;20035;-77
2023/11/22 02:35:13;;;;;;;28.75;19.05;;;;;;;;;;5100618;28;20023;-77
2023/11/22 02:37:59;;;;;;;29.67;18.23;;;;;;;;;;5113858;28;20109;-77
2023/11/22 02:40:45;;;;;;;28.58;18.55;;;;;;;;;;5101299;28;20054;-78
2023/11/22 02:43:30;;;;;;;28.35;19.00;;;;;;;;;;5100012;28;20011;-78
2023/11/22 02:46:16;;;;;;;27.55;19.75;;;;;;;;;;5117975;28;20095;-78
2023/11/22 02:49:02;;;;;;;30.15;20.30;;;;;;;;;;5115841;28;20090;-77
2023/11/22 02:51:47;;;;;;;31.08;20.05;;;;;;;;;;5114756;28;20425;-78
2023/11/22 02:54:33;;;;;;;36.20;20.67;;;;;;;;;;5123593;28;20027;-77
2023/11/22 02:57:19;;;;;;;31.60;20.70;;;;;;;;;;5112355;28;20023;-77
2023/11/22 03:00:05;;;;;;;32.85;21.48;;;;;;;;;;5115129;28;20055;-78
2023/11/22 03:02:53;;;;;;;32.70;22.17;;;;;;;;;;5123274;28;20049;-78
2023/11/22 03:05:39;;;;;;;35.10;22.73;;;;;;;;;;5132312;28;20020;-77
2023/11/22 03:08:25;;;;;;;34.75;23.60;;;;;;;;;;5134356;28;20024;-75
2023/11/22 03:11:11;;;;;;;35.97;21.80;;;;;;;;;;5135200;28;20087;-76
2023/11/22 03:13:56;;;;;;;35.72;21.70;;;;;;;;;;5135649;28;20030;-74
2023/11/22 03:16:42;;;;;;;33.95;21.98;;;;;;;;;;5119938;28;20019;-74
2023/11/22 03:19:28;;;;;;;30.63;21.50;;;;;;;;;;5121495;28;20081;-77
2023/11/22 03:22:14;;;;;;;39.65;23.75;;;;;;;;;;5131807;28;20403;-78
2023/11/22 03:24:59;;;;;;;39.22;23.42;;;;;;;;;;5123343;28;20020;-77
2023/11/22 03:27:47;;;;;;;38.65;24.27;;;;;;;;;;5133142;28;20019;-73
2023/11/22 03:30:32;;;;;;;33.05;21.98;;;;;;;;;;5133735;28;20020;-74
2023/11/22 03:33:18;;;;;;;37.72;23.38;;;;;;;;;;5126372;28;20016;-78
2023/11/22 03:36:05;;;;;;;37.72;24.17;;;;;;;;;;5121792;28;20123;-79
2023/11/22 03:38:50;;;;;;;39.90;24.42;;;;;;;;;;5122427;28;20087;-77
2023/11/22 03:41:37;;;;;;;36.38;24.48;;;;;;;;;;5105886;28;20068;-77
2023/11/22 03:44:22;;;;;;;38.35;23.42;;;;;;;;;;5118869;28;20023;-77
2023/11/22 03:47:09;;;;;;;41.83;24.40;;;;;;;;;;5120056;28;20046;-77
2023/11/22 03:49:55;;;;;;;39.35;25.00;;;;;;;;;;5105741;28;20016;-77
2023/11/22 03:52:40;;;;;;;41.45;25.38;;;;;;;;;;5099197;28;20110;-78
2023/11/22 03:55:26;;;;;;;42.75;25.77;;;;;;;;;;5116961;28;20023;-77
2023/11/22 03:58:11;;;;;;;42.00;25.75;;;;;;;;;;5110360;28;20022;-75
2023/11/22 04:00:58;;;;;;;37.28;25.35;;;;;;;;;;5118483;28;20008;-75
2023/11/22 04:03:44;;;;;;;45.15;27.80;;;;;;;;;;5117993;28;20024;-77
2023/11/22 04:06:29;;;;;;;43.00;27.13;;;;;;;;;;5119643;28;20100;-74
2023/11/22 04:09:16;;;;;;;42.83;26.67;;;;;;;;;;5118019;28;20016;-75
2023/11/22 04:12:03;;;;;;;40.08;26.35;;;;;;;;;;5103900;28;20019;-75
2023/11/22 04:14:51;;;;;;;43.67;26.90;;;;;;;;;;5116501;28;20028;-73
2023/11/22 04:17:37;;;;;;;47.05;29.77;;;;;;;;;;5118343;28;20004;-74
2023/11/22 04:20:22;;;;;;;47.28;29.20;;;;;;;;;;5102093;28;20031;-75
2023/11/22 04:23:11;;;;;;;45.38;29.67;;;;;;;;;;5118120;28;20032;-74
2023/11/22 04:25:58;;;;;;;47.70;29.05;;;;;;;;;;5116111;28;20075;-73
2023/11/22 04:28:43;;;;;;;49.92;30.73;;;;;;;;;;5118600;28;20024;-75
2023/11/22 04:31:29;;;;;;;46.58;28.95;;;;;;;;;;5112160;28;20031;-76
2023/11/22 04:34:14;;;;;;;45.47;29.38;;;;;;;;;;5101757;28;20035;-77
2023/11/22 04:37:00;;;;;;;51.30;30.92;;;;;;;;;;5099116;28;20024;-76
2023/11/22 04:39:49;;;;;;;57.25;32.45;;;;;;;;;;5100133;28;20030;-77
2023/11/22 04:42:36;;;;;;;53.80;32.20;;;;;;;;;;5099661;28;20077;-78
2023/11/22 04:45:21;;;;;;;54.90;32.47;;;;;;;;;;5098711;28;20076;-78
2023/11/22 04:48:07;;;;;;;53.53;32.42;;;;;;;;;;5098808;28;20027;-76
2023/11/22 04:50:53;;;;;;;55.45;32.28;;;;;;;;;;5105261;28;20075;-74
2023/11/22 04:53:38;;;;;;;52.45;32.95;;;;;;;;;;5102242;28;20027;-73
2023/11/22 04:56:24;;;;;;;52.13;32.55;;;;;;;;;;5118161;28;20016;-74
2023/11/22 04:59:10;;;;;;;57.45;33.92;;;;;;;;;;5119046;28;20034;-74
2023/11/22 05:01:56;;;;;;;54.50;34.05;;;;;;;;;;5117485;28;20462;-73
2023/11/22 05:04:42;;;;;;;60.20;34.47;;;;;;;;;;5103454;28;20081;-74
2023/11/22 05:07:27;;;;;;;58.47;34.90;;;;;;;;;;5117017;28;20020;-74
2023/11/22 05:10:13;;;;;;;55.38;34.55;;;;;;;;;;5116871;28;20091;-74
2023/11/22 05:13:00;;;;;;;56.70;34.67;;;;;;;;;;5116575;28;20110;-74
2023/11/22 05:15:46;;;;;;;62.13;35.28;;;;;;;;;;5117019;28;20019;-73
2023/11/22 05:18:32;;;;;;;58.63;35.63;;;;;;;;;;5116260;28;20035;-74
2023/11/22 05:21:18;;;;;;;60.75;35.53;;;;;;;;;;5117173;28;20158;-73
2023/11/22 05:24:03;;;;;;;63.20;36.05;;;;;;;;;;5116960;28;20181;-74
2023/11/22 05:26:49;;;;;;;64.28;36.88;;;;;;;;;;5116302;28;20016;-72
2023/11/22 05:29:35;;;;;;;63.80;36.95;;;;;;;;;;5116840;28;20436;-73
2023/11/22 05:32:21;;;;;;;61.63;37.35;;;;;;;;;;5116905;28;20034;-74
2023/11/22 05:35:09;;;;;;;68.32;39.15;;;;;;;;;;5116604;28;20027;-74
2023/11/22 05:37:55;;;;;;;62.97;37.65;;;;;;;;;;5102660;28;20122;-72
2023/11/22 05:40:42;;;;;;;68.50;38.83;;;;;;;;;;5115629;28;20012;-73
2023/11/22 05:43:28;;;;;;;66.75;38.90;;;;;;;;;;5101653;28;20100;-74
2023/11/22 05:46:13;;;;;;;66.55;39.40;;;;;;;;;;5116531;28;20019;-73
2023/11/22 05:49:00;;;;;;;70.63;40.70;;;;;;;;;;5116568;28;20028;-74
2023/11/22 05:51:46;;;;;;;74.38;40.58;;;;;;;;;;5115390;28;20052;-74
2023/11/22 05:54:31;;;;;;;71.53;40.50;;;;;;;;;;5117418;28;20063;-73
2023/11/22 05:57:19;;;;;;;64.65;39.40;;;;;;;;;;5116753;28;20038;-72
2023/11/22 06:00:05;;;;;;;66.05;40.17;;;;;;;;;;5116492;28;20176;-74
2023/11/22 06:02:51;;;;;;;67.57;39.03;;;;;;;;;;5115941;28;20152;-73
2023/11/22 06:05:39;;;;;;;61.10;38.45;;;;;;;;;;5101398;28;20057;-74
2023/11/22 06:08:25;;;;;;;67.93;40.58;;;;;;;;;;5115407;28;20084;-73
2023/11/22 06:11:13;;;;;;;67.30;40.88;;;;;;;;;;5115052;28;20035;-72
2023/11/22 06:13:59;;;;;;;76.10;41.30;;;;;;;;;;5115669;28;20084;-73
2023/11/22 06:16:45;;;;;;;70.05;39.42;;;;;;;;;;5115226;28;20024;-73
2023/11/22 06:19:30;;;;;;;70.25;41.00;;;;;;;;;;5115855;28;20102;-73
2023/11/22 06:22:16;;;;;;;77.45;41.72;;;;;;;;;;5116074;28;20020;-73
2023/11/22 06:25:02;;;;;;;70.15;38.75;;;;;;;;;;5114411;28;20399;-74
2023/11/22 06:27:48;;;;;;;73.97;39.55;;;;;;;;;;5115183;28;20015;-74
2023/11/22 06:30:34;;;;;;;73.93;40.63;;;;;;;;;;5115585;28;20015;-74
2023/11/22 06:33:20;;;;;;;71.18;40.47;;;;;;;;;;5114719;28;20042;-74
2023/11/22 06:36:06;;;;;;;75.40;40.17;;;;;;;;;;5114893;28;20410;-75
2023/11/22 06:38:52;;;;;;;74.35;38.08;;;;;;;;;;5115966;28;20414;-75
2023/11/22 06:41:38;;;;;;;72.45;36.83;;;;;;;;;;5099095;28;20111;-73
2023/11/22 06:44:23;;;;;;;69.63;35.85;;;;;;;;;;5101395;28;20385;-75
2023/11/22 06:47:09;;;;;;;72.70;36.00;;;;;;;;;;5114512;28;20363;-75
2023/11/22 06:49:54;;;;;;;76.13;36.40;;;;;;;;;;5115496;28;20027;-74
2023/11/22 06:52:41;;;;;;;69.07;36.63;;;;;;;;;;5114367;28;20135;-75
2023/11/22 06:55:27;;;;;;;79.65;36.58;;;;;;;;;;5115817;28;20114;-75
2023/11/22 06:58:13;;;;;;;79.05;36.92;;;;;;;;;;5101150;28;20024;-73
2023/11/22 07:01:00;;;;;;;78.57;36.97;;;;;;;;;;5101048;28;20075;-71
2023/11/22 07:03:46;;;;;;;71.40;33.85;;;;;;;;;;5114230;28;20092;-73
2023/11/22 07:06:32;;;;;;;74.65;35.83;;;;;;;;;;5114605;28;20074;-73
2023/11/22 07:09:19;;;;;;;80.68;37.67;;;;;;;;;;5114248;28;20057;-73
2023/11/22 07:12:05;;;;;;;77.40;36.22;;;;;;;;;;5114954;28;20051;-73
2023/11/22 07:14:51;;;;;;;75.97;38.10;;;;;;;;;;5115005;28;20107;-71
2023/11/22 07:17:37;;;;;;;77.72;35.13;;;;;;;;;;5115851;28;20501;-75
2023/11/22 07:20:23;;;;;;;71.18;34.72;;;;;;;;;;5113730;28;20031;-72
2023/11/22 07:23:13;;;;;;;70.63;34.08;;;;;;;;;;5114057;28;20020;-71
2023/11/22 07:25:58;;;;;;;75.00;35.72;;;;;;;;;;5114582;28;20027;-72
2023/11/22 07:28:44;;;;;;;77.47;34.45;;;;;;;;;;5114679;28;20062;-72
2023/11/22 07:31:30;;;;;;;79.03;33.80;;;;;;;;;;5115007;28;20359;-73
2023/11/22 07:34:15;;;;;;;80.32;32.45;;;;;;;;;;5115135;28;20024;-71
2023/11/22 07:37:01;;;;;;;78.22;32.35;;;;;;;;;;5114351;28;20016;-72
2023/11/22 07:39:47;;;;;;;79.38;33.28;;;;;;;;;;5113963;28;20022;-72
2023/11/22 07:42:33;;;;;;;79.22;32.03;;;;;;;;;;5114223;28;20019;-72
2023/11/22 07:45:18;;;;;;;86.68;33.75;;;;;;;;;;5114286;28;20379;-72
2023/11/22 07:48:04;;;;;;;78.80;31.98;;;;;;;;;;5113817;28;20049;-73
2023/11/22 07:50:50;;;;;;;78.18;34.33;;;;;;;;;;5101048;28;20039;-72
2023/11/22 07:53:35;;;;;;;73.20;31.27;;;;;;;;;;5113474;28;20046;-72
2023/11/22 07:56:21;;;;;;;78.63;33.47;;;;;;;;;;5115009;28;20015;-72
2023/11/22 07:59:07;;;;;;;64.72;32.63;;;;;;;;;;5114194;28;20031;-72
2023/11/22 08:01:53;;;;;;;78.05;33.03;;;;;;;;;;5113709;28;20150;-72
2023/11/22 08:04:40;;;;;;;72.05;32.53;;;;;;;;;;5113830;28;20066;-73
2023/11/22 08:07:26;;;;;;;71.20;33.00;;;;;;;;;;5100303;28;20110;-72
2023/11/22 08:10:18;;;;;;;70.53;31.98;;;;;;;;;;5114116;28;20024;-72
2023/11/22 08:13:04;;;;;;;71.28;31.02;;;;;;;;;;5113446;28;20482;-73
2023/11/22 08:15:50;;;;;;;73.95;33.72;;;;;;;;;;5113817;28;20028;-74
2023/11/22 08:18:35;;;;;;;68.63;31.20;;;;;;;;;;5112944;28;20023;-73
2023/11/22 08:21:21;;;;;;;83.85;37.08;;;;;;;;;;5117167;28;20019;-74
2023/11/22 08:24:07;;;;;;;72.70;32.10;;;;;;;;;;5118784;28;20368;-76
2023/11/22 08:26:52;;;;;;;71.45;31.77;;;;;;;;;;5117178;28;20023;-68
2023/11/22 08:29:38;;;;;;;69.95;34.20;;;;;;;;;;5116594;28;20497;-73
2023/11/22 08:32:27;;;;;;;98.60;44.63;;;;;;;;;;5103070;28;20047;-73
2023/11/22 08:35:13;;;;;;;77.28;37.28;;;;;;;;;;5118174;28;20036;-73
2023/11/22 08:38:00;;;;;;;80.25;38.88;;;;;;;;;;5117242;28;20072;-74
2023/11/22 08:40:46;;;;;;;73.97;39.78;;;;;;;;;;5117646;28;20121;-74
2023/11/22 08:43:32;;;;;;;76.30;37.50;;;;;;;;;;5117590;28;20019;-76
2023/11/22 08:46:18;;;;;;;58.40;30.83;;;;;;;;;;5117736;28;20436;-71
2023/11/22 08:49:03;;;;;;;56.72;29.20;;;;;;;;;;5116585;28;20161;-72
2023/11/22 08:51:49;;;;;;;54.83;29.58;;;;;;;;;;5117953;28;20043;-78
2023/11/22 08:54:34;;;;;;;53.55;29.45;;;;;;;;;;5120680;28;20053;-72
2023/11/22 08:57:20;;;;;;;55.58;29.00;;;;;;;;;;5116808;28;20502;-74
2023/11/22 09:00:08;;;;;;;59.00;30.00;;;;;;;;;;5116864;28;20115;-72
2023/11/22 09:02:57;;;;;;;52.85;29.05;;;;;;;;;;5116695;28;20027;-73
2023/11/22 09:05:43;;;;;;;56.13;30.80;;;;;;;;;;5117186;28;20027;-72
2023/11/22 09:08:29;;;;;;;59.35;29.48;;;;;;;;;;5102487;28;20027;-73
2023/11/22 09:11:17;;;;;;;60.63;32.22;;;;;;;;;;5116515;28;20023;-72
2023/11/22 09:14:04;;;;;;;62.78;33.03;;;;;;;;;;5115735;28;20463;-71
2023/11/22 09:16:54;;;;;;;56.78;31.48;;;;;;;;;;5117239;28;20027;-72
2023/11/22 09:19:40;;;;;;;59.30;33.40;;;;;;;;;;5116338;28;20051;-73
2023/11/22 09:22:26;;;;;;;55.13;32.13;;;;;;;;;;5116468;28;20025;-73
2023/11/22 09:25:12;;;;;;;59.30;34.08;;;;;;;;;;5115588;28;20355;-72
2023/11/22 09:28:00;;;;;;;61.15;34.33;;;;;;;;;;5116602;28;20030;-72
2023/11/22 09:30:48;;;;;;;56.80;31.77;;;;;;;;;;5101540;28;20346;-73
2023/11/22 09:33:33;;;;;;;56.63;31.55;;;;;;;;;;5116590;28;20019;-72
2023/11/22 09:36:19;;;;;;;55.00;31.67;;;;;;;;;;5101900;28;20098;-72
2023/11/22 09:39:08;;;;;;;66.90;36.67;;;;;;;;;;5115268;28;20023;-73
2023/11/22 09:41:54;;;;;;;62.55;34.40;;;;;;;;;;5116113;28;20027;-72
2023/11/22 09:44:39;;;;;;;58.58;35.08;;;;;;;;;;5115996;28;20332;-73
2023/11/22 09:47:26;;;;;;;59.33;33.80;;;;;;;;;;5101020;28;20061;-72
2023/11/22 09:50:19;;;;;;;60.90;33.45;;;;;;;;;;5100205;28;20442;-73
2023/11/22 09:53:10;;;;;;;49.85;29.70;;;;;;;;;;5115564;28;20098;-74
2023/11/22 09:55:56;;;;;;;51.22;30.23;;;;;;;;;;5115354;28;20467;-73
2023/11/22 09:58:44;;;;;;;46.38;27.30;;;;;;;;;;5115167;28;20015;-73
2023/11/22 10:01:36;;;;;;;44.15;25.70;;;;;;;;;;5101638;28;20019;-73
2023/11/22 10:04:24;;;;;;;41.67;24.48;;;;;;;;;;5100863;28;20015;-77
2023/11/22 10:07:10;;;;;;;43.63;25.27;;;;;;;;;;5101409;28;20454;-77
2023/11/22 10:10:01;;;;;;;44.30;24.90;;;;;;;;;;5101816;28;20031;-76
2023/11/22 10:12:49;;;;;;;41.38;24.40;;;;;;;;;;5118092;28;20023;-76
2023/11/22 10:15:37;;;;;;;40.38;24.50;;;;;;;;;;5116768;28;20020;-78
2023/11/22 10:18:24;;;;;;;39.72;23.45;;;;;;;;;;5117033;28;20027;-74
2023/11/22 10:21:20;;;;;;;36.38;22.90;;;;;;;;;;5100568;28;20016;-76
2023/11/22 10:24:09;;;;;;;37.10;24.30;;;;;;;;;;5099722;28;20023;-77
2023/11/22 10:26:57;;;;;;;39.15;23.52;;;;;;;;;;5116298;28;20066;-75
2023/11/22 10:29:44;;;;;;;39.50;23.98;;;;;;;;;;5115318;28;20023;-73
2023/11/22 10:32:29;;;;;;;40.22;25.20;;;;;;;;;;5102739;28;20028;-77
2023/11/22 10:35:17;;;;;;;39.33;25.70;;;;;;;;;;5115440;28;20106;-78
2023/11/22 10:38:06;;;;;;;44.03;25.85;;;;;;;;;;5116175;28;20496;-76
2023/11/22 10:40:54;;;;;;;43.38;27.13;;;;;;;;;;5116712;28;20034;-75
2023/11/22 10:43:41;;;;;;;43.00;26.88;;;;;;;;;;5114797;28;20019;-77
2023/11/22 10:46:28;;;;;;;44.75;28.80;;;;;;;;;;5114259;28;20019;-76
2023/11/22 10:49:14;;;;;;;48.33;30.00;;;;;;;;;;5115479;28;20359;-77
2023/11/22 10:52:00;;;;;;;50.33;29.52;;;;;;;;;;5114062;28;20047;-75
2023/11/22 10:54:49;;;;;;;46.42;29.35;;;;;;;;;;5114718;28;20448;-74
2023/11/22 10:57:39;;;;;;;49.60;31.13;;;;;;;;;;5115114;28;20444;-73
2023/11/22 11:00:27;;;;;;;47.45;29.50;;;;;;;;;;5114197;28;20028;-73
2023/11/22 11:03:20;;;;;;;52.72;30.80;;;;;;;;;;5114466;28;20020;-72
2023/11/22 11:06:08;;;;;;;55.83;31.63;;;;;;;;;;5115151;28;20078;-71
2023/11/22 11:08:58;;;;;;;57.05;31.50;;;;;;;;;;5114114;28;20102;-75
2023/11/22 11:11:44;;;;;;;56.53;32.53;;;;;;;;;;5101147;28;20454;-76
2023/11/22 11:14:30;;;;;;;54.75;33.45;;;;;;;;;;5115252;28;20058;-74
2023/11/22 11:17:16;;;;;;;52.33;32.40;;;;;;;;;;5099472;28;20023;-74
2023/11/22 11:20:04;;;;;;;60.10;37.72;;;;;;;;;;5100691;28;20055;-75
2023/11/22 11:22:52;;;;;;;77.00;47.10;;;;;;;;;;5098978;28;20020;-75
2023/11/22 11:25:38;;;;;;;72.82;44.50;;;;;;;;;;5114386;28;20193;-76
2023/11/22 11:28:27;;;;;;;65.72;39.10;;;;;;;;;;5100673;28;20301;-76
2023/11/22 11:31:14;;;;;;;77.38;46.97;;;;;;;;;;5114751;28;20035;-74
2023/11/22 11:34:00;;;;;;;84.03;49.80;;;;;;;;;;5114204;28;20455;-76
2023/11/22 11:36:53;;;;;;;78.75;46.22;;;;;;;;;;5099742;28;20418;-74
2023/11/22 11:39:38;;;;;;;77.03;44.33;;;;;;;;;;5113926;28;20103;-77
2023/11/22 11:42:24;;;;;;;85.30;48.83;;;;;;;;;;5114844;28;20432;-75
2023/11/22 11:45:10;;;;;;;74.78;42.25;;;;;;;;;;5099908;28;20024;-76
2023/11/22 11:47:56;;;;;;;67.97;39.63;;;;;;;;;;5113878;28;20424;-76
2023/11/22 11:50:46;;;;;;;68.57;39.67;;;;;;;;;;5098643;28;20432;-76
2023/11/22 11:53:32;;;;;;;67.18;38.13;;;;;;;;;;5102389;28;20090;-75
2023/11/22 11:56:18;;;;;;;68.47;38.75;;;;;;;;;;5118183;28;20028;-75
2023/11/22 11:59:04;;;;;;;83.25;47.00;;;;;;;;;;5118176;28;20448;-75
2023/11/22 12:01:53;;;;;;;83.20;45.47;;;;;;;;;;5117966;28;20038;-75
2023/11/22 12:04:39;;;;;;;75.70;41.72;;;;;;;;;;5119516;28;20028;-75
2023/11/22 12:07:25;;;;;;;76.40;41.83;;;;;;;;;;5117441;28;20111;-75
2023/11/22 12:10:11;;;;;;;89.88;50.38;;;;;;;;;;5117837;28;20030;-76
2023/11/22 12:12:58;;;;;;;98.45;53.88;;;;;;;;;;5117818;28;20023;-76
2023/11/22 12:15:44;;;;;;;109.43;58.35;;;;;;;;;;5117301;28;20028;-76
2023/11/22 12:18:32;;;;;;;105.60;53.47;;;;;;;;;;5118400;28;20024;-72
2023/11/22 12:21:18;;;;;;;82.03;45.03;;;;;;;;;;5116735;28;20028;-72
2023/11/22 12:24:06;;;;;;;75.45;41.40;;;;;;;;;;5103984;28;20088;-71
2023/11/22 12:26:51;;;;;;;71.70;38.72;;;;;;;;;;5116673;28;20031;-71
2023/11/22 12:29:37;;;;;;;71.75;38.13;;;;;;;;;;5115420;28;20406;-72
2023/11/22 12:32:26;;;;;;;73.97;38.88;;;;;;;;;;5118852;28;20083;-72
2023/11/22 12:35:11;;;;;;;73.00;38.42;;;;;;;;;;5117830;28;20019;-72
2023/11/22 12:37:58;;;;;;;85.45;45.38;;;;;;;;;;5117679;28;20024;-71
2023/11/22 12:40:46;;;;;;;109.53;58.55;;;;;;;;;;5116531;28;20123;-72
2023/11/22 12:43:32;;;;;;;131.50;71.18;;;;;;;;;;5116055;28;20015;-72
2023/11/22 12:46:18;;;;;;;118.53;63.13;;;;;;;;;;5116593;28;20031;-72
2023/11/22 12:49:07;;;;;;;119.07;59.60;;;;;;;;;;5117850;28;20020;-72
2023/11/22 12:51:53;;;;;;;135.43;72.70;;;;;;;;;;5103133;28;20044;-71
2023/11/22 12:54:39;;;;;;;136.13;69.75;;;;;;;;;;5116921;28;20102;-70
2023/11/22 12:57:25;;;;;;;119.78;62.35;;;;;;;;;;5116741;28;20051;-70
2023/11/22 13:00:11;;;;;;;100.18;50.72;;;;;;;;;;5116023;28;20038;-70
2023/11/22 13:02:57;;;;;;;90.03;46.47;;;;;;;;;;5115830;28;20058;-69
2023/11/22 13:05:43;;;;;;;79.60;40.53;;;;;;;;;;5113923;28;20016;-70
2023/11/22 13:08:29;;;;;;;75.75;40.08;;;;;;;;;;5116650;28;20019;-71
2023/11/22 13:11:15;;;;;;;76.57;39.70;;;;;;;;;;5102978;28;20028;-69
2023/11/22 13:14:01;;;;;;;75.20;38.40;;;;;;;;;;5116530;28;20092;-71
2023/11/22 13:16:47;;;;;;;74.03;39.42;;;;;;;;;;5101472;28;20031;-69
2023/11/22 13:19:37;;;;;;;72.70;38.85;;;;;;;;;;5101055;28;20363;-70
2023/11/22 13:22:24;;;;;;;72.72;38.97;;;;;;;;;;5116454;28;20016;-69
2023/11/22 13:25:10;;;;;;;80.18;37.88;;;;;;;;;;5117524;27;20027;-73
2023/11/22 13:27:56;;;;;;;74.45;38.65;;;;;;;;;;5121518;27;20015;-71
2023/11/22 13:30:42;;;;;;;85.80;45.58;;;;;;;;;;5129644;27;20020;-72
2023/11/22 13:33:28;;;;;;;99.80;51.38;;;;;;;;;;5101236;28;20093;-73
2023/11/22 13:36:14;;;;;;;102.50;52.60;;;;;;;;;;5116013;28;20031;-73
2023/11/22 13:39:00;;;;;;;89.97;44.65;;;;;;;;;;5101607;28;20030;-67
2023/11/22 13:41:46;;;;;;;86.43;43.20;;;;;;;;;;5114543;28;20024;-70
2023/11/22 13:44:31;;;;;;;82.72;41.05;;;;;;;;;;5134887;27;20059;-70
2023/11/22 13:47:17;;;;;;;76.38;39.97;;;;;;;;;;5135967;27;20022;-69
2023/11/22 13:50:03;;;;;;;84.93;42.45;;;;;;;;;;5121923;27;20068;-71
2023/11/22 13:52:49;;;;;;;77.15;37.03;;;;;;;;;;5120577;27;20091;-67
2023/11/22 13:55:36;;;;;;;76.30;38.47;;;;;;;;;;5122331;27;20030;-71
2023/11/22 13:58:22;;;;;;;73.05;35.30;;;;;;;;;;5120904;27;20022;-70
2023/11/22 14:01:13;;;;;;;79.30;38.35;;;;;;;;;;5134686;27;20026;-72
2023/11/22 14:03:58;;;;;;;77.15;39.67;;;;;;;;;;5134579;27;20026;-71
2023/11/22 14:06:44;;;;;;;68.05;36.65;;;;;;;;;;5120771;27;20062;-71
2023/11/22 14:09:30;;;;;;;76.22;38.88;;;;;;;;;;5136068;27;20332;-71
2023/11/22 14:12:18;;;;;;;72.93;37.85;;;;;;;;;;5135530;27;20015;-72
2023/11/22 14:15:07;;;;;;;76.07;38.88;;;;;;;;;;5134882;27;20026;-70
2023/11/22 14:17:54;;;;;;;83.65;39.45;;;;;;;;;;5134734;27;20023;-72
2023/11/22 14:20:39;;;;;;;82.70;40.25;;;;;;;;;;5118175;27;20432;-71
2023/11/22 14:23:25;;;;;;;83.22;41.78;;;;;;;;;;5114906;28;20099;-72
2023/11/22 14:26:11;;;;;;;82.78;41.40;;;;;;;;;;5114007;28;20020;-70
2023/11/22 14:28:57;;;;;;;85.57;41.30;;;;;;;;;;5114607;28;20089;-72
2023/11/22 14:31:44;;;;;;;88.18;42.35;;;;;;;;;;5114146;28;20356;-71
2023/11/22 14:34:30;;;;;;;83.57;41.33;;;;;;;;;;5114382;28;20430;-71
2023/11/22 14:37:15;;;;;;;87.93;42.53;;;;;;;;;;5113149;28;20367;-70
2023/11/22 14:40:03;;;;;;;79.05;39.63;;;;;;;;;;5113787;28;20440;-72
2023/11/22 14:42:51;;;;;;;87.22;41.55;;;;;;;;;;5113966;28;20020;-71
2023/11/22 14:45:38;;;;;;;89.63;43.15;;;;;;;;;;5114799;28;20051;-71
2023/11/22 14:48:23;;;;;;;83.50;41.72;;;;;;;;;;5113722;28;20024;-70
2023/11/22 14:51:09;;;;;;;90.68;41.70;;;;;;;;;;5113888;28;20043;-71
2023/11/22 14:53:55;;;;;;;92.72;43.42;;;;;;;;;;5113929;28;20054;-70
2023/11/22 14:56:40;;;;;;;85.60;41.92;;;;;;;;;;5098143;28;20023;-71
2023/11/22 14:59:26;;;;;;;89.32;42.97;;;;;;;;;;5113930;28;20026;-71
2023/11/22 15:02:12;;;;;;;84.35;40.50;;;;;;;;;;5114438;28;20040;-71
2023/11/22 15:04:57;;;;;;;87.40;42.20;;;;;;;;;;5113751;28;20020;-70
2023/11/22 15:07:43;;;;;;;80.30;41.53;;;;;;;;;;5099528;28;20031;-69
2023/11/22 15:10:29;;;;;;;87.20;42.00;;;;;;;;;;5114038;28;20020;-68
2023/11/22 15:13:15;;;;;;;84.43;42.70;;;;;;;;;;5114846;28;20030;-69
2023/11/22 15:16:00;;;;;;;89.20;42.53;;;;;;;;;;5114251;28;20083;-70
2023/11/22 15:18:49;;;;;;;94.80;44.10;;;;;;;;;;5113896;28;20028;-70
2023/11/22 15:21:34;;;;;;;85.70;44.05;;;;;;;;;;5114488;28;20019;-70
2023/11/22 15:24:20;;;;;;;91.25;43.25;;;;;;;;;;5113439;28;20094;-70
2023/11/22 15:27:05;;;;;;;94.78;45.15;;;;;;;;;;5112869;28;20112;-72
2023/11/22 15:29:51;;;;;;;93.43;44.13;;;;;;;;;;5117022;28;20023;-71
2023/11/22 15:32:37;;;;;;;90.78;43.45;;;;;;;;;;5117209;28;20031;-71
2023/11/22 15:35:22;;;;;;;89.85;42.50;;;;;;;;;;5105732;28;20059;-78
2023/11/22 15:38:08;;;;;;;87.10;43.45;;;;;;;;;;5120310;28;20106;-76
2023/11/22 15:40:55;;;;;;;89.63;44.25;;;;;;;;;;5119299;28;20031;-76
2023/11/22 15:43:42;;;;;;;85.75;42.50;;;;;;;;;;5119176;28;20439;-75
2023/11/22 15:46:28;;;;;;;87.65;41.78;;;;;;;;;;5103600;28;20456;-73
2023/11/22 15:49:15;;;;;;;85.18;41.83;;;;;;;;;;5117599;28;20023;-74
2023/11/22 15:52:00;;;;;;;85.25;41.42;;;;;;;;;;5089244;28;20043;-75
2023/11/22 15:54:47;;;;;;;83.47;39.38;;;;;;;;;;5103187;28;20019;-79
2023/11/22 15:57:33;;;;;;;80.80;40.33;;;;;;;;;;5117631;28;20023;-77
2023/11/22 16:00:21;;;;;;;82.90;37.05;;;;;;;;;;5103047;28;20030;-76
2023/11/22 16:03:13;;;;;;;77.68;40.45;;;;;;;;;;5117526;28;20094;-76
2023/11/22 16:06:00;;;;;;;89.70;43.78;;;;;;;;;;5103127;28;20015;-79